createdAt,value
2017-07-06T00:01:45.257Z,20.38
2017-07-06T00:04:13.533Z,19.64
2017-07-06T00:06:41.846Z,21.48
2017-07-06T00:09:10.110Z,19.36
2017-07-06T00:11:38.399Z,20.62
2017-07-06T00:14:06.710Z,20.26
2017-07-06T00:16:34.976Z,20.50
2017-07-06T00:19:03.284Z,19.34
2017-07-06T00:21:31.552Z,22.44
2017-07-06T00:23:59.858Z,20.58
2017-07-06T00:26:27.389Z,22.92
2017-07-06T00:28:55.655Z,22.50
2017-07-06T00:31:23.950Z,21.64
2017-07-06T00:33:52.216Z,21.80
2017-07-06T00:36:20.528Z,22.86
2017-07-06T00:38:48.796Z,22.50
2017-07-06T00:41:17.069Z,22.94
2017-07-06T00:43:45.371Z,22.28
2017-07-06T00:46:13.641Z,21.66
2017-07-06T00:48:41.955Z,23.72
2017-07-06T00:51:11.225Z,22.64
2017-07-06T00:53:39.494Z,21.94
2017-07-06T00:56:07.806Z,23.82
2017-07-06T00:58:36.073Z,22.80
2017-07-06T01:01:04.373Z,25.84
2017-07-06T01:03:32.644Z,26.14
2017-07-06T01:06:00.961Z,24.66
2017-07-06T01:08:29.225Z,24.86
2017-07-06T01:10:57.494Z,23.00
2017-07-06T01:13:25.797Z,23.34
2017-07-06T01:15:54.071Z,23.52
2017-07-06T01:18:22.379Z,25.44
2017-07-06T01:20:50.652Z,24.46
2017-07-06T01:23:18.962Z,26.28
2017-07-06T01:25:47.227Z,23.92
2017-07-06T01:28:15.523Z,24.46
2017-07-06T01:30:43.846Z,25.28
2017-07-06T01:33:12.111Z,26.02
2017-07-06T01:35:40.413Z,25.92
2017-07-06T01:38:08.689Z,26.98
2017-07-06T01:40:36.978Z,26.02
2017-07-06T01:43:05.245Z,24.84
2017-07-06T01:45:33.549Z,28.10
2017-07-06T01:48:01.815Z,25.98
2017-07-06T01:50:30.119Z,25.24
2017-07-06T01:52:58.411Z,25.36
2017-07-06T01:55:26.707Z,24.60
2017-07-06T01:57:54.982Z,27.10
2017-07-06T02:00:24.222Z,26.34
2017-07-06T02:02:52.493Z,26.90
2017-07-06T02:05:20.788Z,26.96
2017-07-06T02:07:49.097Z,26.76
2017-07-06T02:10:17.369Z,27.14
2017-07-06T02:12:45.642Z,28.98
2017-07-06T02:15:13.944Z,31.56
2017-07-06T02:17:42.212Z,26.72
2017-07-06T02:20:10.485Z,28.24
2017-07-06T02:22:38.780Z,25.94
2017-07-06T02:25:07.058Z,26.36
2017-07-06T02:27:35.369Z,26.64
2017-07-06T02:30:03.632Z,26.90
2017-07-06T02:32:31.912Z,27.96
2017-07-06T02:35:00.211Z,29.78
2017-07-06T02:37:28.481Z,27.94
2017-07-06T02:39:56.796Z,27.98
2017-07-06T02:42:25.062Z,30.66
2017-07-06T02:44:53.343Z,26.90
2017-07-06T02:47:21.673Z,28.30
2017-07-06T02:49:49.958Z,28.44
2017-07-06T02:52:18.234Z,29.34
2017-07-06T02:54:46.541Z,28.52
2017-07-06T02:57:14.807Z,28.40
2017-07-06T02:59:43.106Z,27.94
2017-07-06T03:02:11.374Z,28.64
2017-07-06T03:04:40.648Z,29.82
2017-07-06T03:07:08.934Z,31.58
2017-07-06T03:09:37.201Z,30.90
2017-07-06T03:12:05.505Z,30.72
2017-07-06T03:14:33.777Z,29.76
2017-07-06T03:17:02.085Z,30.30
2017-07-06T03:19:30.386Z,29.96
2017-07-06T03:21:58.657Z,29.94
2017-07-06T03:24:26.977Z,28.58
2017-07-06T03:26:55.241Z,29.56
2017-07-06T03:29:23.517Z,29.42
2017-07-06T03:31:51.825Z,30.84
2017-07-06T03:34:20.106Z,31.02
2017-07-06T03:36:48.381Z,31.68
2017-07-06T03:39:16.708Z,31.02
2017-07-06T03:41:44.985Z,32.90
2017-07-06T03:44:13.287Z,33.72
2017-07-06T03:46:41.555Z,33.32
2017-07-06T03:49:09.832Z,33.14
2017-07-06T03:51:38.134Z,32.34
2017-07-06T03:54:06.435Z,32.30
2017-07-06T03:56:34.725Z,30.80
2017-07-06T03:59:02.995Z,30.80
2017-07-06T04:01:31.297Z,32.38
2017-07-06T04:03:59.602Z,32.02
2017-07-06T04:06:27.904Z,30.52
2017-07-06T04:08:57.114Z,29.84
2017-07-06T04:11:25.385Z,30.10
2017-07-06T04:13:53.706Z,32.24
2017-07-06T04:16:21.985Z,31.28
2017-07-06T04:18:50.310Z,33.02
2017-07-06T04:21:18.576Z,32.84
2017-07-06T04:23:46.861Z,32.34
2017-07-06T04:26:15.174Z,32.88
2017-07-06T04:28:43.446Z,32.10
2017-07-06T04:31:11.760Z,31.28
2017-07-06T04:33:40.030Z,31.58
2017-07-06T04:36:08.331Z,34.48
2017-07-06T04:38:36.606Z,34.70
2017-07-06T04:41:04.966Z,34.62
2017-07-06T04:43:33.201Z,35.00
2017-07-06T04:46:01.501Z,32.20
2017-07-06T04:48:29.765Z,33.60
2017-07-06T04:50:58.076Z,33.96
2017-07-06T04:53:26.349Z,33.92
2017-07-06T04:55:54.612Z,34.08
2017-07-06T04:58:22.909Z,35.54
2017-07-06T05:00:51.179Z,34.14
2017-07-06T05:03:19.481Z,32.56
2017-07-06T05:05:47.752Z,35.78
2017-07-06T05:08:16.055Z,34.14
2017-07-06T05:10:44.352Z,34.28
2017-07-06T05:13:12.619Z,34.16
2017-07-06T05:15:40.942Z,32.28
2017-07-06T05:18:09.207Z,32.68
2017-07-06T05:20:37.477Z,31.50
2017-07-06T05:23:05.789Z,33.74
2017-07-06T05:25:34.063Z,32.86
2017-07-06T05:28:02.332Z,30.36
2017-07-06T05:30:30.644Z,29.76
2017-07-06T05:32:58.922Z,28.88
2017-07-06T05:35:27.212Z,30.16
2017-07-06T05:37:55.496Z,28.44
2017-07-06T05:40:23.796Z,26.68
2017-07-06T05:42:52.062Z,29.44
2017-07-06T05:45:20.348Z,27.62
2017-07-06T05:47:48.648Z,27.48
2017-07-06T05:50:16.916Z,25.46
2017-07-06T05:52:45.235Z,27.08
2017-07-06T05:55:13.512Z,26.12
2017-07-06T05:57:41.785Z,24.90
2017-07-06T06:00:10.106Z,26.16
2017-07-06T06:02:38.375Z,25.82
2017-07-06T06:05:06.640Z,26.98
2017-07-06T06:07:34.945Z,26.46
2017-07-06T06:10:03.246Z,26.96
2017-07-06T06:12:31.513Z,27.88
2017-07-06T06:14:59.838Z,25.02
2017-07-06T06:17:30.055Z,27.66
2017-07-06T06:19:58.369Z,25.76
2017-07-06T06:22:26.645Z,25.66
2017-07-06T06:24:54.966Z,24.14
2017-07-06T06:27:23.244Z,24.40
2017-07-06T06:29:51.523Z,23.64
2017-07-06T06:32:19.842Z,24.90
2017-07-06T06:34:48.113Z,25.96
2017-07-06T06:37:16.388Z,23.26
2017-07-06T06:39:44.714Z,23.22
2017-07-06T06:42:12.985Z,23.56
2017-07-06T06:44:41.266Z,24.48
2017-07-06T06:47:09.574Z,25.14
2017-07-06T06:49:37.882Z,24.24
2017-07-06T06:52:06.203Z,24.80
2017-07-06T06:54:34.481Z,26.76
2017-07-06T06:57:02.750Z,23.94
2017-07-06T06:59:31.056Z,22.48
2017-07-06T07:01:59.345Z,23.52
2017-07-06T07:04:27.660Z,22.46
2017-07-06T07:06:55.935Z,23.66
2017-07-06T07:09:24.225Z,21.66
2017-07-06T07:11:52.539Z,20.96
2017-07-06T07:14:20.817Z,19.06
2017-07-06T07:16:48.480Z,20.74
2017-07-06T07:19:16.754Z,19.42
2017-07-06T07:21:45.022Z,19.70
2017-07-06T07:24:12.587Z,18.00
2017-07-06T07:26:40.862Z,17.28
2017-07-06T07:29:09.145Z,19.04
2017-07-06T07:31:37.487Z,15.72
2017-07-06T07:34:05.760Z,17.42
2017-07-06T07:36:34.035Z,17.46
2017-07-06T07:39:02.352Z,17.84
2017-07-06T07:41:30.621Z,16.50
2017-07-06T07:43:58.897Z,15.00
2017-07-06T07:46:27.228Z,14.52
2017-07-06T07:48:55.512Z,16.78
2017-07-06T07:51:23.797Z,13.46
2017-07-06T07:53:52.128Z,15.76
2017-07-06T07:56:20.402Z,14.34
2017-07-06T07:58:48.677Z,14.12
2017-07-06T08:01:16.999Z,13.86
2017-07-06T08:03:45.309Z,13.26
2017-07-06T08:06:13.721Z,13.46
2017-07-06T08:08:42.000Z,13.92
2017-07-06T08:11:10.270Z,11.92
2017-07-06T08:13:38.571Z,11.60
2017-07-06T08:16:06.854Z,13.56
2017-07-06T08:18:35.181Z,13.90
2017-07-06T08:21:03.449Z,13.14
2017-07-06T08:23:31.726Z,13.38
2017-07-06T08:26:00.030Z,11.50
2017-07-06T08:28:27.574Z,12.50
2017-07-06T08:30:55.845Z,14.50
2017-07-06T08:33:24.120Z,11.60
2017-07-06T08:35:52.426Z,13.32
2017-07-06T08:38:20.789Z,12.62
2017-07-06T08:40:49.093Z,13.02
2017-07-06T08:43:17.361Z,12.40
2017-07-06T08:45:45.650Z,12.52
2017-07-06T08:48:13.971Z,13.88
2017-07-06T08:50:42.245Z,14.08
2017-07-06T08:53:10.520Z,15.04
2017-07-06T08:55:38.937Z,12.50
2017-07-06T08:58:06.443Z,12.56
2017-07-06T09:00:33.950Z,12.64
2017-07-06T09:03:02.271Z,12.64
2017-07-06T09:05:30.538Z,12.66
2017-07-06T09:07:58.809Z,11.38
2017-07-06T09:10:27.115Z,10.32
2017-07-06T09:12:55.437Z,11.96
2017-07-06T09:15:23.711Z,11.04
2017-07-06T09:17:51.978Z,9.24
2017-07-06T09:20:20.282Z,10.14
2017-07-06T09:22:48.567Z,10.12
2017-07-06T09:25:16.878Z,12.12
2017-07-06T09:27:45.152Z,11.20
2017-07-06T09:30:13.425Z,13.20
2017-07-06T09:32:41.739Z,13.42
2017-07-06T09:35:10.013Z,12.56
2017-07-06T09:37:38.289Z,10.06
2017-07-06T09:40:06.612Z,10.02
2017-07-06T09:42:34.887Z,10.44
2017-07-06T09:45:03.162Z,11.42
2017-07-06T09:47:31.573Z,11.88
2017-07-06T09:49:59.872Z,10.30
2017-07-06T09:52:28.145Z,8.96
2017-07-06T09:54:56.441Z,10.30
2017-07-06T09:57:24.716Z,11.00
2017-07-06T09:59:53.018Z,9.66
2017-07-06T10:02:21.330Z,9.46
2017-07-06T10:04:49.601Z,11.30
2017-07-06T10:07:17.867Z,9.60
2017-07-06T10:09:46.178Z,9.12
2017-07-06T10:12:14.481Z,8.50
2017-07-06T10:14:42.787Z,11.62
2017-07-06T10:17:11.104Z,11.14
2017-07-06T10:19:39.417Z,10.14
2017-07-06T10:22:07.727Z,11.66
2017-07-06T10:24:35.992Z,10.46
2017-07-06T10:27:04.273Z,10.16
2017-07-06T10:29:32.590Z,10.10
2017-07-06T10:32:00.861Z,9.84
2017-07-06T10:34:29.121Z,9.58
2017-07-06T10:36:57.421Z,9.18
2017-07-06T10:39:25.714Z,9.14
2017-07-06T10:41:53.983Z,10.28
2017-07-06T10:44:22.290Z,10.54
2017-07-06T10:46:50.552Z,11.12
2017-07-06T10:49:18.827Z,10.14
2017-07-06T10:51:47.186Z,9.12
2017-07-06T10:54:15.451Z,8.58
2017-07-06T10:56:43.730Z,9.18
2017-07-06T10:59:12.024Z,7.20
2017-07-06T11:01:40.290Z,7.26
2017-07-06T11:04:08.617Z,8.00
2017-07-06T11:06:36.889Z,9.66
2017-07-06T11:09:05.164Z,10.16
2017-07-06T11:11:33.467Z,9.70
2017-07-06T11:14:01.742Z,10.12
2017-07-06T11:16:30.066Z,8.14
2017-07-06T11:18:58.344Z,8.70
2017-07-06T11:21:26.618Z,8.66
2017-07-06T11:23:55.208Z,7.22
2017-07-06T11:26:23.517Z,9.12
2017-07-06T11:28:51.947Z,8.52
2017-07-06T11:31:20.256Z,9.20
2017-07-06T11:33:48.543Z,8.34
2017-07-06T11:36:16.841Z,7.52
2017-07-06T11:38:45.133Z,7.70
2017-07-06T11:41:13.406Z,7.38
2017-07-06T11:43:41.726Z,5.92
2017-07-06T11:46:10.017Z,7.08
2017-07-06T11:48:38.284Z,8.36
2017-07-06T11:51:06.581Z,7.88
2017-07-06T11:53:34.966Z,8.78
2017-07-06T11:56:03.262Z,8.02
2017-07-06T11:58:31.545Z,7.80
2017-07-06T12:00:59.874Z,7.98
2017-07-06T12:03:28.151Z,8.30
2017-07-06T12:05:56.452Z,7.40
2017-07-06T12:08:24.770Z,8.12
2017-07-06T12:10:53.055Z,7.48
2017-07-06T12:13:21.380Z,7.12
2017-07-06T12:15:49.663Z,7.58
2017-07-06T12:18:17.935Z,6.78
2017-07-06T12:20:46.419Z,7.76
2017-07-06T12:23:14.705Z,6.58
2017-07-06T12:25:42.982Z,6.82
2017-07-06T12:28:11.289Z,6.52
2017-07-06T12:30:39.572Z,6.60
2017-07-06T12:33:07.887Z,6.54
2017-07-06T12:35:36.218Z,7.56
2017-07-06T12:38:04.499Z,6.20
2017-07-06T12:40:32.819Z,6.60
2017-07-06T12:43:01.085Z,6.12
2017-07-06T12:45:29.356Z,6.68
2017-07-06T12:47:57.665Z,6.92
2017-07-06T12:50:26.010Z,8.12
2017-07-06T12:52:54.288Z,6.76
2017-07-06T12:55:22.567Z,7.18
2017-07-06T12:57:50.878Z,7.50
2017-07-06T13:00:19.161Z,5.74
2017-07-06T13:02:47.508Z,6.90
2017-07-06T13:05:15.798Z,6.64
2017-07-06T13:07:44.081Z,7.82
2017-07-06T13:10:12.397Z,6.40
2017-07-06T13:12:40.678Z,6.44
2017-07-06T13:15:08.965Z,6.46
2017-07-06T13:17:37.290Z,6.04
2017-07-06T13:20:05.562Z,5.96
2017-07-06T13:22:33.885Z,6.44
2017-07-06T13:25:02.181Z,5.64
2017-07-06T13:27:30.471Z,7.96
2017-07-06T13:29:58.826Z,7.46
2017-07-06T13:32:27.114Z,7.12
2017-07-06T13:34:55.381Z,6.88
2017-07-06T13:37:23.686Z,5.62
2017-07-06T13:39:52.093Z,6.50
2017-07-06T13:42:20.375Z,6.46
2017-07-06T13:44:48.653Z,6.36
2017-07-06T13:47:16.979Z,6.98
2017-07-06T13:49:45.255Z,6.48
2017-07-06T13:52:13.566Z,6.18
2017-07-06T13:54:41.842Z,6.76
2017-07-06T13:57:10.171Z,6.16
2017-07-06T13:59:38.450Z,6.06
2017-07-06T14:02:06.727Z,6.68
2017-07-06T14:04:35.043Z,7.00
2017-07-06T14:07:03.317Z,5.96
2017-07-06T14:09:31.589Z,6.26
2017-07-06T14:11:59.953Z,6.80
2017-07-06T14:14:28.242Z,6.42
2017-07-06T14:16:56.593Z,6.14
2017-07-06T14:19:24.874Z,6.38
2017-07-06T14:21:53.173Z,5.46
2017-07-06T14:24:21.503Z,6.62
2017-07-06T14:26:49.774Z,5.70
2017-07-06T14:29:18.049Z,5.16
2017-07-06T14:31:46.371Z,5.64
2017-07-06T14:34:14.650Z,5.68
2017-07-06T14:36:42.937Z,6.20
2017-07-06T14:39:11.281Z,6.00
2017-07-06T14:41:39.548Z,6.12
2017-07-06T14:44:07.820Z,5.98
2017-07-06T14:46:36.168Z,6.40
2017-07-06T14:49:04.450Z,6.08
2017-07-06T14:51:32.726Z,6.42
2017-07-06T14:54:01.038Z,5.96
2017-07-06T14:56:29.300Z,6.12
2017-07-06T14:58:57.572Z,7.04
2017-07-06T15:01:25.881Z,6.42
2017-07-06T15:03:54.157Z,6.80
2017-07-06T15:06:22.480Z,5.34
2017-07-06T15:08:50.746Z,6.40
2017-07-06T15:11:19.022Z,6.50
2017-07-06T15:13:47.355Z,6.10
2017-07-06T15:16:15.644Z,6.10
2017-07-06T15:18:43.914Z,5.80
2017-07-06T15:21:11.449Z,6.62
2017-07-06T15:23:39.721Z,7.06
2017-07-06T15:26:08.038Z,6.00
2017-07-06T15:28:36.311Z,5.40
2017-07-06T15:31:04.580Z,5.80
2017-07-06T15:33:32.900Z,6.00
2017-07-06T15:36:01.165Z,6.56
2017-07-06T15:38:29.438Z,5.70
2017-07-06T15:40:57.741Z,5.80
2017-07-06T15:43:26.016Z,6.46
2017-07-06T15:45:54.323Z,6.02
2017-07-06T15:48:22.640Z,6.14
2017-07-06T15:50:50.917Z,5.68
2017-07-06T15:53:19.196Z,5.68
2017-07-06T15:55:47.506Z,6.02
2017-07-06T15:58:15.777Z,5.34
2017-07-06T16:00:44.215Z,6.82
2017-07-06T16:03:12.491Z,6.34
2017-07-06T16:05:40.762Z,5.80
2017-07-06T16:08:09.065Z,5.82
2017-07-06T16:10:37.381Z,6.22
2017-07-06T16:13:05.682Z,6.08
2017-07-06T16:15:33.962Z,6.82
2017-07-06T16:18:01.527Z,7.74
2017-07-06T16:20:29.789Z,6.82
2017-07-06T16:22:58.057Z,6.74
2017-07-06T16:25:26.377Z,7.50
2017-07-06T16:27:54.660Z,7.12
2017-07-06T16:30:22.948Z,7.42
2017-07-06T16:32:51.273Z,8.96
2017-07-06T16:35:19.541Z,7.26
2017-07-06T16:37:47.815Z,6.66
2017-07-06T16:40:16.114Z,6.80
2017-07-06T16:42:44.377Z,6.52
2017-07-06T16:45:12.677Z,7.38
2017-07-06T16:47:40.940Z,7.68
2017-07-06T16:50:09.237Z,7.98
2017-07-06T16:52:37.588Z,6.94
2017-07-06T16:55:05.853Z,6.80
2017-07-06T16:57:34.120Z,6.90
2017-07-06T17:00:02.405Z,6.88
2017-07-06T17:02:30.676Z,7.64
2017-07-06T17:04:58.997Z,7.04
2017-07-06T17:07:27.264Z,7.42
2017-07-06T17:09:55.538Z,7.22
2017-07-06T17:12:24.156Z,9.56
2017-07-06T17:14:52.429Z,7.08
2017-07-06T17:17:20.693Z,8.88
2017-07-06T17:19:48.996Z,6.90
2017-07-06T17:22:17.293Z,8.62
2017-07-06T17:24:45.564Z,8.04
2017-07-06T17:27:13.864Z,7.72
2017-07-06T17:29:42.126Z,7.56
2017-07-06T17:32:10.393Z,7.96
2017-07-06T17:34:38.702Z,7.44
2017-07-06T17:37:06.995Z,8.08
2017-07-06T17:39:35.260Z,7.04
2017-07-06T17:42:03.573Z,8.26
2017-07-06T17:44:31.847Z,6.62
2017-07-06T17:47:00.127Z,6.96
2017-07-06T17:49:28.427Z,6.52
2017-07-06T17:51:56.697Z,7.92
2017-07-06T17:54:25.004Z,7.88
2017-07-06T17:56:52.521Z,9.40
2017-07-06T17:59:20.840Z,9.36
2017-07-06T18:01:49.154Z,9.60
2017-07-06T18:04:17.432Z,11.74
2017-07-06T18:06:45.705Z,8.80
2017-07-06T18:09:14.014Z,13.58
2017-07-06T18:11:42.280Z,9.78
2017-07-06T18:14:10.597Z,11.44
2017-07-06T18:16:38.875Z,9.80
2017-07-06T18:19:07.168Z,9.94
2017-07-06T18:21:35.482Z,10.50
2017-07-06T18:24:03.790Z,10.88
2017-07-06T18:26:32.102Z,12.60
2017-07-06T18:29:00.387Z,11.88
2017-07-06T18:31:28.703Z,13.02
2017-07-06T18:33:57.014Z,11.48
2017-07-06T18:36:25.292Z,11.12
2017-07-06T18:38:53.592Z,11.18
2017-07-06T18:41:21.871Z,11.30
2017-07-06T18:43:50.194Z,11.38
2017-07-06T18:46:18.472Z,9.74
2017-07-06T18:48:46.790Z,10.98
2017-07-06T18:51:15.102Z,9.92
2017-07-06T18:53:43.381Z,11.40
2017-07-06T18:56:11.715Z,12.70
2017-07-06T18:58:39.990Z,12.46
2017-07-06T19:01:08.277Z,15.30
2017-07-06T19:03:36.583Z,13.34
2017-07-06T19:06:04.858Z,12.18
2017-07-06T19:08:33.169Z,14.04
2017-07-06T19:11:01.462Z,12.88
2017-07-06T19:13:30.700Z,11.96
2017-07-06T19:15:59.017Z,12.42
2017-07-06T19:18:27.296Z,13.48
2017-07-06T19:20:55.622Z,11.94
2017-07-06T19:23:23.912Z,13.64
2017-07-06T19:25:52.189Z,14.34
2017-07-06T19:28:20.505Z,12.98
2017-07-06T19:30:48.789Z,13.28
2017-07-06T19:33:17.100Z,14.84
2017-07-06T19:35:46.221Z,14.64
2017-07-06T19:38:14.549Z,14.26
2017-07-06T19:40:42.920Z,13.70
2017-07-06T19:43:12.215Z,15.80
2017-07-06T19:45:40.513Z,15.46
2017-07-06T19:48:08.801Z,13.88
2017-07-06T19:50:37.139Z,13.38
2017-07-06T19:53:05.485Z,12.80
2017-07-06T19:55:33.779Z,11.42
2017-07-06T19:58:02.081Z,12.48
2017-07-06T20:00:30.524Z,11.26
2017-07-06T20:02:58.832Z,11.02
2017-07-06T20:05:27.156Z,10.10
2017-07-06T20:07:55.515Z,10.38
2017-07-06T20:10:23.862Z,9.28
2017-07-06T20:12:52.155Z,9.70
2017-07-06T20:15:20.445Z,9.58
2017-07-06T20:17:48.818Z,9.16
2017-07-06T20:20:17.134Z,9.74
2017-07-06T20:22:45.451Z,9.02
2017-07-06T20:25:13.818Z,9.56
2017-07-06T20:27:42.149Z,8.66
2017-07-06T20:30:10.448Z,8.28
2017-07-06T20:32:38.816Z,8.52
2017-07-06T20:35:07.257Z,8.62
2017-07-06T20:37:35.605Z,6.94
2017-07-06T20:40:03.947Z,7.28
2017-07-06T20:42:32.452Z,8.68
2017-07-06T20:45:00.721Z,8.26
2017-07-06T20:47:28.992Z,8.00
2017-07-06T20:49:57.288Z,8.94
2017-07-06T20:52:25.560Z,9.16
2017-07-06T20:54:53.852Z,8.68
2017-07-06T20:57:22.123Z,8.68
2017-07-06T20:59:50.414Z,9.60
2017-07-06T21:02:18.724Z,11.26
2017-07-06T21:04:47.969Z,14.06
2017-07-06T21:07:16.366Z,15.58
2017-07-06T21:09:45.457Z,17.34
2017-07-06T21:12:13.799Z,20.04
2017-07-06T21:14:42.104Z,25.24
2017-07-06T21:17:10.374Z,25.94
2017-07-06T21:19:38.699Z,26.20
2017-07-06T21:22:07.059Z,25.70
2017-07-06T21:24:35.430Z,26.58
2017-07-06T21:27:03.709Z,23.34
2017-07-06T21:29:32.475Z,23.70
2017-07-06T21:32:00.936Z,29.50
2017-07-06T21:34:31.154Z,29.00
2017-07-06T21:37:00.298Z,28.42
2017-07-06T21:39:28.600Z,26.92
2017-07-06T21:41:56.937Z,30.40
2017-07-06T21:44:26.340Z,31.18
2017-07-06T21:46:54.681Z,31.88
2017-07-06T21:49:22.998Z,30.90
2017-07-06T21:51:51.296Z,33.62
2017-07-06T21:54:19.627Z,30.16
2017-07-06T21:56:47.906Z,33.62
2017-07-06T21:59:15.436Z,37.48
2017-07-06T22:01:43.771Z,35.58
2017-07-06T22:04:12.481Z,37.20
2017-07-06T22:06:41.097Z,44.02
2017-07-06T22:09:08.669Z,40.34
2017-07-06T22:11:36.947Z,23.34
2017-07-06T22:14:11.185Z,25.50
2017-07-06T22:16:39.456Z,25.48
2017-07-06T22:19:07.779Z,26.38
2017-07-06T22:21:36.057Z,26.30
2017-07-06T22:24:04.361Z,25.72
2017-07-06T22:26:32.684Z,21.34
2017-07-06T22:29:00.967Z,20.08
2017-07-06T22:31:29.249Z,18.92
2017-07-06T22:33:57.564Z,17.12
2017-07-06T22:36:25.841Z,13.96
2017-07-06T22:38:54.177Z,11.96
2017-07-06T22:41:22.449Z,15.58
2017-07-06T22:43:50.727Z,13.70
2017-07-06T22:46:19.046Z,15.22
2017-07-06T22:48:47.321Z,13.56
2017-07-06T22:51:15.658Z,14.14
2017-07-06T22:53:43.938Z,14.72
2017-07-06T22:56:12.218Z,14.24
2017-07-06T22:58:40.540Z,16.18
2017-07-06T23:01:08.854Z,14.50
2017-07-06T23:03:37.181Z,18.38
2017-07-06T23:06:05.454Z,16.70
2017-07-06T23:08:33.735Z,18.76
2017-07-06T23:11:02.070Z,16.88
2017-07-06T23:13:30.368Z,18.18
2017-07-06T23:15:58.657Z,19.52
2017-07-06T23:18:26.970Z,20.24
2017-07-06T23:20:55.253Z,19.98
2017-07-06T23:23:23.564Z,22.88
2017-07-06T23:25:51.837Z,22.56
2017-07-06T23:28:20.118Z,21.34
2017-07-06T23:30:48.449Z,21.82
2017-07-06T23:33:17.729Z,20.90
2017-07-06T23:35:46.017Z,21.66
2017-07-06T23:38:14.328Z,23.74
2017-07-06T23:40:42.606Z,22.24
2017-07-06T23:43:10.934Z,23.58
2017-07-06T23:45:39.222Z,24.96
2017-07-06T23:48:07.510Z,23.14
2017-07-06T23:50:35.845Z,24.32
2017-07-06T23:53:04.129Z,24.66
2017-07-06T23:55:32.410Z,25.36
2017-07-06T23:58:00.728Z,27.46
